sensor_id;sensor_type;location;lat;lon;timestamp;pressure;altitude;pressure_sealevel;temperature;humidity
73518;BME280;61766;60.318;25.044;2024-02-28T00:01:23;101783.54;;;1.19;45.41
73518;BME280;61766;60.318;25.044;2024-02-28T00:03:48;101783.90;;;0.92;45.21
73518;BME280;61766;60.318;25.044;2024-02-28T00:06:15;101782.69;;;0.77;46.06
73518;BME280;61766;60.318;25.044;2024-02-28T00:08:39;101785.10;;;0.34;46.36
73518;BME280;61766;60.318;25.044;2024-02-28T00:11:04;101788.47;;;-0.29;48.29
73518;BME280;61766;60.318;25.044;2024-02-28T00:13:29;101788.91;;;-1.44;50.31
73518;BME280;61766;60.318;25.044;2024-02-28T00:15:54;101786.92;;;0.05;48.42
73518;BME280;61766;60.318;25.044;2024-02-28T00:18:20;101789.68;;;-2.29;52.26
73518;BME280;61766;60.318;25.044;2024-02-28T00:20:47;101780.47;;;-0.82;50.31
73518;BME280;61766;60.318;25.044;2024-02-28T00:23:10;101779.50;;;-0.08;49.15
73518;BME280;61766;60.318;25.044;2024-02-28T00:25:35;101776.48;;;0.36;48.17
73518;BME280;61766;60.318;25.044;2024-02-28T00:28:01;101776.95;;;-0.03;48.51
73518;BME280;61766;60.318;25.044;2024-02-28T00:30:27;101775.38;;;0.33;48.51
73518;BME280;61766;60.318;25.044;2024-02-28T00:32:52;101780.28;;;0.26;48.29
73518;BME280;61766;60.318;25.044;2024-02-28T00:35:17;101781.40;;;-0.97;50.20
73518;BME280;61766;60.318;25.044;2024-02-28T00:37:42;101777.98;;;-0.76;50.94
73518;BME280;61766;60.318;25.044;2024-02-28T00:40:09;101773.55;;;-0.39;49.78
73518;BME280;61766;60.318;25.044;2024-02-28T00:42:33;101775.33;;;-1.57;51.57
73518;BME280;61766;60.318;25.044;2024-02-28T00:44:58;101768.48;;;-1.33;52.01
73518;BME280;61766;60.318;25.044;2024-02-28T00:47:23;101765.28;;;-0.38;50.50
73518;BME280;61766;60.318;25.044;2024-02-28T00:49:49;101759.97;;;0.26;49.14
73518;BME280;61766;60.318;25.044;2024-02-28T00:52:14;101753.07;;;0.72;47.94
73518;BME280;61766;60.318;25.044;2024-02-28T00:54:40;101750.37;;;0.80;47.06
73518;BME280;61766;60.318;25.044;2024-02-28T00:57:05;101748.99;;;1.36;46.12
73518;BME280;61766;60.318;25.044;2024-02-28T00:59:30;101744.67;;;1.66;45.76
73518;BME280;61766;60.318;25.044;2024-02-28T01:01:55;101744.96;;;1.47;45.33
73518;BME280;61766;60.318;25.044;2024-02-28T01:04:21;101741.24;;;1.72;45.23
73518;BME280;61766;60.318;25.044;2024-02-28T01:06:46;101736.61;;;1.56;45.72
73518;BME280;61766;60.318;25.044;2024-02-28T01:09:11;101731.80;;;1.80;45.14
73518;BME280;61766;60.318;25.044;2024-02-28T01:11:36;101731.21;;;1.71;45.11
73518;BME280;61766;60.318;25.044;2024-02-28T01:14:02;101740.45;;;1.84;44.61
73518;BME280;61766;60.318;25.044;2024-02-28T01:16:27;101739.74;;;1.65;44.82
73518;BME280;61766;60.318;25.044;2024-02-28T01:18:52;101737.70;;;1.98;44.49
73518;BME280;61766;60.318;25.044;2024-02-28T01:21:17;101742.53;;;1.97;44.12
73518;BME280;61766;60.318;25.044;2024-02-28T01:23:43;101736.32;;;1.91;44.39
73518;BME280;61766;60.318;25.044;2024-02-28T01:26:08;101734.22;;;1.55;44.53
73518;BME280;61766;60.318;25.044;2024-02-28T01:28:33;101739.15;;;1.73;44.52
73518;BME280;61766;60.318;25.044;2024-02-28T01:30:59;101736.29;;;2.10;43.91
73518;BME280;61766;60.318;25.044;2024-02-28T01:33:24;101740.58;;;2.17;43.93
73518;BME280;61766;60.318;25.044;2024-02-28T01:35:49;101745.24;;;2.08;43.57
73518;BME280;61766;60.318;25.044;2024-02-28T01:38:14;101744.33;;;2.12;43.09
73518;BME280;61766;60.318;25.044;2024-02-28T01:40:43;101747.08;;;1.98;42.99
73518;BME280;61766;60.318;25.044;2024-02-28T01:43:06;101750.03;;;2.10;42.91
73518;BME280;61766;60.318;25.044;2024-02-28T01:45:30;101754.35;;;0.84;44.85
73518;BME280;61766;60.318;25.044;2024-02-28T01:47:55;101752.49;;;1.83;44.19
73518;BME280;61766;60.318;25.044;2024-02-28T01:50:20;101748.49;;;2.28;43.55
73518;BME280;61766;60.318;25.044;2024-02-28T01:52:46;101748.04;;;2.14;43.57
73518;BME280;61766;60.318;25.044;2024-02-28T01:55:11;101751.55;;;2.21;43.40
73518;BME280;61766;60.318;25.044;2024-02-28T01:57:37;101746.88;;;1.98;43.73
73518;BME280;61766;60.318;25.044;2024-02-28T02:00:01;101744.98;;;0.71;45.12
73518;BME280;61766;60.318;25.044;2024-02-28T02:02:27;101741.01;;;1.18;45.31
73518;BME280;61766;60.318;25.044;2024-02-28T02:04:52;101736.38;;;-0.04;47.54
73518;BME280;61766;60.318;25.044;2024-02-28T02:07:17;101737.93;;;1.43;45.60
73518;BME280;61766;60.318;25.044;2024-02-28T02:09:42;101738.87;;;1.32;45.34
73518;BME280;61766;60.318;25.044;2024-02-28T02:12:08;101735.40;;;1.64;44.96
73518;BME280;61766;60.318;25.044;2024-02-28T02:14:33;101728.36;;;1.77;44.49
73518;BME280;61766;60.318;25.044;2024-02-28T02:16:58;101725.37;;;1.64;44.84
73518;BME280;61766;60.318;25.044;2024-02-28T02:19:23;101720.93;;;1.32;45.05
73518;BME280;61766;60.318;25.044;2024-02-28T02:21:53;101721.98;;;1.32;45.32
73518;BME280;61766;60.318;25.044;2024-02-28T02:24:14;101720.24;;;0.57;47.33
73518;BME280;61766;60.318;25.044;2024-02-28T02:26:39;101715.41;;;0.50;47.82
73518;BME280;61766;60.318;25.044;2024-02-28T02:29:04;101719.06;;;1.13;46.97
73518;BME280;61766;60.318;25.044;2024-02-28T02:31:30;101711.94;;;0.28;47.97
73518;BME280;61766;60.318;25.044;2024-02-28T02:33:55;101714.52;;;0.74;47.16
73518;BME280;61766;60.318;25.044;2024-02-28T02:36:20;101713.30;;;0.87;46.94
73518;BME280;61766;60.318;25.044;2024-02-28T02:38:45;101707.60;;;0.73;47.23
73518;BME280;61766;60.318;25.044;2024-02-28T02:41:11;101708.06;;;0.72;46.65
73518;BME280;61766;60.318;25.044;2024-02-28T02:43:36;101709.21;;;0.88;47.14
73518;BME280;61766;60.318;25.044;2024-02-28T02:46:01;101712.22;;;1.47;45.97
73518;BME280;61766;60.318;25.044;2024-02-28T02:48:26;101713.49;;;1.04;46.59
73518;BME280;61766;60.318;25.044;2024-02-28T02:50:52;101712.62;;;0.73;46.90
73518;BME280;61766;60.318;25.044;2024-02-28T02:53:17;101714.19;;;0.94;46.71
73518;BME280;61766;60.318;25.044;2024-02-28T02:55:42;101714.04;;;1.07;46.44
73518;BME280;61766;60.318;25.044;2024-02-28T02:58:07;101710.11;;;0.85;46.67
73518;BME280;61766;60.318;25.044;2024-02-28T03:00:32;101707.18;;;1.38;46.09
73518;BME280;61766;60.318;25.044;2024-02-28T03:02:58;101702.95;;;0.01;47.67
73518;BME280;61766;60.318;25.044;2024-02-28T03:05:23;101707.56;;;0.79;47.41
73518;BME280;61766;60.318;25.044;2024-02-28T03:07:48;101708.68;;;0.81;47.97
73518;BME280;61766;60.318;25.044;2024-02-28T03:10:14;101710.70;;;0.37;48.13
73518;BME280;61766;60.318;25.044;2024-02-28T03:12:39;101710.02;;;-0.41;50.29
73518;BME280;61766;60.318;25.044;2024-02-28T03:15:04;101709.26;;;0.24;49.24
73518;BME280;61766;60.318;25.044;2024-02-28T03:17:29;101711.65;;;-0.10;50.03
73518;BME280;61766;60.318;25.044;2024-02-28T03:19:55;101715.16;;;-0.00;49.16
73518;BME280;61766;60.318;25.044;2024-02-28T03:22:20;101713.51;;;0.79;48.37
73518;BME280;61766;60.318;25.044;2024-02-28T03:24:45;101720.78;;;0.85;48.00
73518;BME280;61766;60.318;25.044;2024-02-28T03:27:10;101718.22;;;0.58;47.81
73518;BME280;61766;60.318;25.044;2024-02-28T03:29:36;101710.84;;;0.23;48.59
73518;BME280;61766;60.318;25.044;2024-02-28T03:32:01;101709.26;;;0.39;49.39
73518;BME280;61766;60.318;25.044;2024-02-28T03:34:26;101716.40;;;0.89;47.93
73518;BME280;61766;60.318;25.044;2024-02-28T03:36:51;101716.08;;;1.12;47.31
73518;BME280;61766;60.318;25.044;2024-02-28T03:39:17;101722.84;;;0.93;47.54
73518;BME280;61766;60.318;25.044;2024-02-28T03:41:42;101725.13;;;0.49;48.71
73518;BME280;61766;60.318;25.044;2024-02-28T03:44:07;101723.32;;;0.22;49.21
73518;BME280;61766;60.318;25.044;2024-02-28T03:46:32;101726.04;;;0.65;48.85
73518;BME280;61766;60.318;25.044;2024-02-28T03:48:58;101724.74;;;0.43;49.27
73518;BME280;61766;60.318;25.044;2024-02-28T03:51:23;101721.25;;;0.35;49.46
73518;BME280;61766;60.318;25.044;2024-02-28T03:53:48;101720.42;;;-0.37;50.61
73518;BME280;61766;60.318;25.044;2024-02-28T03:56:20;101714.88;;;0.81;49.18
73518;BME280;61766;60.318;25.044;2024-02-28T03:58:39;101716.75;;;0.03;49.68
73518;BME280;61766;60.318;25.044;2024-02-28T04:01:04;101722.02;;;0.87;48.56
73518;BME280;61766;60.318;25.044;2024-02-28T04:03:29;101723.39;;;0.22;49.07
73518;BME280;61766;60.318;25.044;2024-02-28T04:05:54;101715.23;;;0.63;49.39
73518;BME280;61766;60.318;25.044;2024-02-28T04:08:20;101717.74;;;1.04;48.00
73518;BME280;61766;60.318;25.044;2024-02-28T04:10:45;101721.70;;;0.78;48.30
73518;BME280;61766;60.318;25.044;2024-02-28T04:13:10;101722.89;;;0.66;47.98
73518;BME280;61766;60.318;25.044;2024-02-28T04:15:36;101718.65;;;0.77;49.26
73518;BME280;61766;60.318;25.044;2024-02-28T04:18:01;101720.50;;;1.02;47.99
73518;BME280;61766;60.318;25.044;2024-02-28T04:20:26;101721.09;;;1.62;47.26
73518;BME280;61766;60.318;25.044;2024-02-28T04:22:51;101721.92;;;1.31;47.36
73518;BME280;61766;60.318;25.044;2024-02-28T04:25:17;101719.13;;;1.44;47.07
73518;BME280;61766;60.318;25.044;2024-02-28T04:27:42;101719.27;;;1.89;46.49
73518;BME280;61766;60.318;25.044;2024-02-28T04:30:08;101720.46;;;1.05;46.65
73518;BME280;61766;60.318;25.044;2024-02-28T04:32:32;101718.37;;;0.74;48.26
73518;BME280;61766;60.318;25.044;2024-02-28T04:34:57;101718.45;;;1.17;47.29
73518;BME280;61766;60.318;25.044;2024-02-28T04:37:23;101719.71;;;0.55;48.85
73518;BME280;61766;60.318;25.044;2024-02-28T04:39:48;101716.94;;;0.90;48.49
73518;BME280;61766;60.318;25.044;2024-02-28T04:42:13;101718.61;;;0.59;49.01
73518;BME280;61766;60.318;25.044;2024-02-28T04:44:38;101718.81;;;1.45;47.58
73518;BME280;61766;60.318;25.044;2024-02-28T04:47:04;101721.11;;;1.43;47.31
73518;BME280;61766;60.318;25.044;2024-02-28T04:49:29;101724.07;;;1.29;47.69
73518;BME280;61766;60.318;25.044;2024-02-28T04:51:54;101727.04;;;1.50;47.74
73518;BME280;61766;60.318;25.044;2024-02-28T04:54:19;101725.57;;;1.17;48.51
73518;BME280;61766;60.318;25.044;2024-02-28T04:56:45;101727.24;;;0.66;49.06
73518;BME280;61766;60.318;25.044;2024-02-28T04:59:11;101725.54;;;1.30;48.68
73518;BME280;61766;60.318;25.044;2024-02-28T05:01:35;101722.48;;;1.59;47.53
73518;BME280;61766;60.318;25.044;2024-02-28T05:04:00;101725.88;;;1.38;47.87
73518;BME280;61766;60.318;25.044;2024-02-28T05:06:26;101726.16;;;1.76;47.08
73518;BME280;61766;60.318;25.044;2024-02-28T05:08:51;101721.04;;;2.09;46.68
73518;BME280;61766;60.318;25.044;2024-02-28T05:11:16;101717.31;;;2.08;46.18
73518;BME280;61766;60.318;25.044;2024-02-28T05:13:41;101718.46;;;2.45;46.04
73518;BME280;61766;60.318;25.044;2024-02-28T05:16:11;101719.69;;;2.40;46.08
73518;BME280;61766;60.318;25.044;2024-02-28T05:18:32;101719.82;;;2.54;45.98
73518;BME280;61766;60.318;25.044;2024-02-28T05:20:57;101716.36;;;2.44;45.40
73518;BME280;61766;60.318;25.044;2024-02-28T05:23:23;101716.24;;;2.00;46.10
73518;BME280;61766;60.318;25.044;2024-02-28T05:25:49;101713.63;;;2.64;45.01
73518;BME280;61766;60.318;25.044;2024-02-28T05:28:13;101713.57;;;2.41;45.29
73518;BME280;61766;60.318;25.044;2024-02-28T05:30:38;101710.42;;;2.32;45.58
73518;BME280;61766;60.318;25.044;2024-02-28T05:33:04;101714.44;;;1.98;45.68
73518;BME280;61766;60.318;25.044;2024-02-28T05:35:29;101714.71;;;1.83;46.45
73518;BME280;61766;60.318;25.044;2024-02-28T05:37:56;101713.75;;;1.93;46.13
73518;BME280;61766;60.318;25.044;2024-02-28T05:40:20;101713.00;;;1.80;46.51
73518;BME280;61766;60.318;25.044;2024-02-28T05:42:46;101714.61;;;2.15;46.68
73518;BME280;61766;60.318;25.044;2024-02-28T05:45:10;101711.72;;;2.34;46.26
73518;BME280;61766;60.318;25.044;2024-02-28T05:47:35;101707.98;;;2.37;45.71
73518;BME280;61766;60.318;25.044;2024-02-28T05:50:01;101705.25;;;2.50;45.39
73518;BME280;61766;60.318;25.044;2024-02-28T05:52:26;101701.37;;;2.69;45.62
73518;BME280;61766;60.318;25.044;2024-02-28T05:54:51;101698.90;;;2.68;45.23
73518;BME280;61766;60.318;25.044;2024-02-28T05:57:17;101701.39;;;2.02;46.24
73518;BME280;61766;60.318;25.044;2024-02-28T05:59:42;101696.53;;;2.74;45.18
73518;BME280;61766;60.318;25.044;2024-02-28T06:02:07;101694.82;;;2.85;44.94
73518;BME280;61766;60.318;25.044;2024-02-28T06:04:33;101691.61;;;2.88;44.77
73518;BME280;61766;60.318;25.044;2024-02-28T06:06:58;101691.13;;;2.74;45.27
73518;BME280;61766;60.318;25.044;2024-02-28T06:09:23;101688.83;;;2.75;45.14
73518;BME280;61766;60.318;25.044;2024-02-28T06:11:49;101693.02;;;2.86;45.83
73518;BME280;61766;60.318;25.044;2024-02-28T06:14:14;101691.11;;;2.42;45.98
73518;BME280;61766;60.318;25.044;2024-02-28T06:16:39;101692.91;;;2.81;45.17
73518;BME280;61766;60.318;25.044;2024-02-28T06:19:04;101691.23;;;2.19;46.16
73518;BME280;61766;60.318;25.044;2024-02-28T06:21:30;101692.32;;;2.41;45.87
73518;BME280;61766;60.318;25.044;2024-02-28T06:23:55;101690.44;;;2.68;45.70
73518;BME280;61766;60.318;25.044;2024-02-28T06:26:20;101689.79;;;2.99;45.05
73518;BME280;61766;60.318;25.044;2024-02-28T06:28:46;101689.96;;;2.94;45.30
73518;BME280;61766;60.318;25.044;2024-02-28T06:31:15;101685.48;;;2.82;45.54
73518;BME280;61766;60.318;25.044;2024-02-28T06:33:36;101685.68;;;2.90;45.03
73518;BME280;61766;60.318;25.044;2024-02-28T06:36:01;101694.35;;;2.02;46.58
73518;BME280;61766;60.318;25.044;2024-02-28T06:38:26;101691.87;;;2.63;45.89
73518;BME280;61766;60.318;25.044;2024-02-28T06:40:51;101692.91;;;2.65;45.84
73518;BME280;61766;60.318;25.044;2024-02-28T06:43:17;101696.92;;;2.13;46.83
73518;BME280;61766;60.318;25.044;2024-02-28T06:45:42;101694.50;;;1.86;47.48
73518;BME280;61766;60.318;25.044;2024-02-28T06:48:08;101696.93;;;2.46;46.55
73518;BME280;61766;60.318;25.044;2024-02-28T06:50:32;101697.48;;;2.56;47.13
73518;BME280;61766;60.318;25.044;2024-02-28T06:52:58;101695.40;;;2.42;46.79
73518;BME280;61766;60.318;25.044;2024-02-28T06:55:23;101692.40;;;2.17;47.08
73518;BME280;61766;60.318;25.044;2024-02-28T06:57:48;101691.39;;;2.67;46.37
73518;BME280;61766;60.318;25.044;2024-02-28T07:00:14;101689.13;;;2.40;46.85
73518;BME280;61766;60.318;25.044;2024-02-28T07:02:39;101682.66;;;2.70;46.58
73518;BME280;61766;60.318;25.044;2024-02-28T07:05:04;101689.16;;;1.79;48.01
73518;BME280;61766;60.318;25.044;2024-02-28T07:07:29;101686.20;;;1.61;48.53
73518;BME280;61766;60.318;25.044;2024-02-28T07:09:54;101696.67;;;1.64;49.57
73518;BME280;61766;60.318;25.044;2024-02-28T07:12:20;101701.36;;;0.96;50.18
73518;BME280;61766;60.318;25.044;2024-02-28T07:14:45;101692.36;;;1.83;49.33
73518;BME280;61766;60.318;25.044;2024-02-28T07:17:11;101687.18;;;2.67;48.25
73518;BME280;61766;60.318;25.044;2024-02-28T07:19:36;101692.23;;;2.30;47.85
73518;BME280;61766;60.318;25.044;2024-02-28T07:22:02;101689.22;;;2.64;48.20
73518;BME280;61766;60.318;25.044;2024-02-28T07:24:27;101702.89;;;0.96;50.35
73518;BME280;61766;60.318;25.044;2024-02-28T07:26:52;101697.03;;;1.99;49.38
73518;BME280;61766;60.318;25.044;2024-02-28T07:29:18;101706.21;;;1.73;49.87
73518;BME280;61766;60.318;25.044;2024-02-28T07:31:43;101707.91;;;1.41;51.15
73518;BME280;61766;60.318;25.044;2024-02-28T07:34:09;101705.35;;;0.37;53.92
73518;BME280;61766;60.318;25.044;2024-02-28T07:36:35;101703.94;;;0.84;52.60
73518;BME280;61766;60.318;25.044;2024-02-28T07:39:00;101704.08;;;1.79;50.89
73518;BME280;61766;60.318;25.044;2024-02-28T07:41:25;101704.80;;;1.97;50.68
73518;BME280;61766;60.318;25.044;2024-02-28T07:43:50;101711.90;;;0.77;53.18
73518;BME280;61766;60.318;25.044;2024-02-28T07:46:15;101708.37;;;0.84;53.44
73518;BME280;61766;60.318;25.044;2024-02-28T07:48:41;101710.53;;;1.07;53.16
73518;BME280;61766;60.318;25.044;2024-02-28T07:51:07;101706.45;;;1.61;52.42
73518;BME280;61766;60.318;25.044;2024-02-28T07:53:31;101704.88;;;0.70;53.89
73518;BME280;61766;60.318;25.044;2024-02-28T07:55:56;101701.55;;;0.94;54.55
73518;BME280;61766;60.318;25.044;2024-02-28T07:58:22;101697.04;;;1.16;52.81
73518;BME280;61766;60.318;25.044;2024-02-28T08:00:48;101694.17;;;1.44;53.71
73518;BME280;61766;60.318;25.044;2024-02-28T08:03:12;101688.20;;;1.42;53.87
73518;BME280;61766;60.318;25.044;2024-02-28T08:05:37;101683.86;;;1.71;52.49
73518;BME280;61766;60.318;25.044;2024-02-28T08:08:03;101687.29;;;2.03;51.62
73518;BME280;61766;60.318;25.044;2024-02-28T08:10:28;101691.37;;;1.51;52.66
73518;BME280;61766;60.318;25.044;2024-02-28T08:12:53;101684.14;;;2.39;50.98
73518;BME280;61766;60.318;25.044;2024-02-28T08:15:18;101675.26;;;1.65;51.30
73518;BME280;61766;60.318;25.044;2024-02-28T08:17:43;101673.97;;;1.78;51.97
73518;BME280;61766;60.318;25.044;2024-02-28T08:20:10;101665.93;;;2.30;50.75
73518;BME280;61766;60.318;25.044;2024-02-28T08:22:34;101662.49;;;2.47;50.17
73518;BME280;61766;60.318;25.044;2024-02-28T08:25:00;101662.69;;;1.68;51.48
73518;BME280;61766;60.318;25.044;2024-02-28T08:27:25;101662.11;;;2.71;50.61
73518;BME280;61766;60.318;25.044;2024-02-28T08:29:50;101656.45;;;2.29;51.09
73518;BME280;61766;60.318;25.044;2024-02-28T08:32:16;101674.61;;;1.90;51.76
73518;BME280;61766;60.318;25.044;2024-02-28T08:34:43;101673.12;;;2.30;51.85
73518;BME280;61766;60.318;25.044;2024-02-28T08:37:06;101669.03;;;1.44;52.70
73518;BME280;61766;60.318;25.044;2024-02-28T08:39:31;101678.47;;;0.75;55.28
73518;BME280;61766;60.318;25.044;2024-02-28T08:41:56;101677.37;;;1.36;54.40
73518;BME280;61766;60.318;25.044;2024-02-28T08:44:21;101664.78;;;1.92;53.38
73518;BME280;61766;60.318;25.044;2024-02-28T08:46:47;101670.10;;;1.17;54.82
73518;BME280;61766;60.318;25.044;2024-02-28T08:49:12;101681.07;;;1.42;54.73
73518;BME280;61766;60.318;25.044;2024-02-28T08:51:37;101676.32;;;0.90;55.93
73518;BME280;61766;60.318;25.044;2024-02-28T08:54:02;101668.43;;;2.35;52.91
73518;BME280;61766;60.318;25.044;2024-02-28T08:56:27;101672.91;;;1.91;53.13
73518;BME280;61766;60.318;25.044;2024-02-28T08:58:53;101664.39;;;1.64;53.36
73518;BME280;61766;60.318;25.044;2024-02-28T09:01:18;101655.82;;;2.59;51.89
73518;BME280;61766;60.318;25.044;2024-02-28T09:03:43;101644.41;;;3.15;50.52
73518;BME280;61766;60.318;25.044;2024-02-28T09:06:08;101643.32;;;3.65;49.54
73518;BME280;61766;60.318;25.044;2024-02-28T09:08:33;101646.83;;;3.72;49.09
73518;BME280;61766;60.318;25.044;2024-02-28T09:10:59;101658.86;;;2.64;50.89
73518;BME280;61766;60.318;25.044;2024-02-28T09:13:24;101664.31;;;1.87;52.92
73518;BME280;61766;60.318;25.044;2024-02-28T09:15:49;101666.11;;;3.41;50.44
73518;BME280;61766;60.318;25.044;2024-02-28T09:18:14;101666.93;;;3.92;49.03
73518;BME280;61766;60.318;25.044;2024-02-28T09:20:39;101673.25;;;3.22;49.63
73518;BME280;61766;60.318;25.044;2024-02-28T09:23:05;101666.39;;;3.20;49.56
73518;BME280;61766;60.318;25.044;2024-02-28T09:25:30;101666.88;;;1.97;52.17
73518;BME280;61766;60.318;25.044;2024-02-28T09:27:56;101654.19;;;3.15;50.59
73518;BME280;61766;60.318;25.044;2024-02-28T09:30:21;101657.95;;;3.37;49.94
73518;BME280;61766;60.318;25.044;2024-02-28T09:32:46;101652.64;;;3.66;49.40
73518;BME280;61766;60.318;25.044;2024-02-28T09:35:12;101653.14;;;4.20;48.22
73518;BME280;61766;60.318;25.044;2024-02-28T09:37:36;101641.38;;;4.37;47.69
73518;BME280;61766;60.318;25.044;2024-02-28T09:40:03;101637.14;;;4.58;47.12
73518;BME280;61766;60.318;25.044;2024-02-28T09:42:27;101640.69;;;4.68;47.16
73518;BME280;61766;60.318;25.044;2024-02-28T09:44:53;101641.91;;;4.34;47.54
73518;BME280;61766;60.318;25.044;2024-02-28T09:47:18;101640.10;;;4.54;47.27
73518;BME280;61766;60.318;25.044;2024-02-28T09:49:45;101639.63;;;3.93;48.77
73518;BME280;61766;60.318;25.044;2024-02-28T09:52:08;101641.63;;;4.00;48.35
73518;BME280;61766;60.318;25.044;2024-02-28T09:54:33;101643.51;;;3.90;48.89
73518;BME280;61766;60.318;25.044;2024-02-28T09:56:59;101640.83;;;4.10;48.76
73518;BME280;61766;60.318;25.044;2024-02-28T09:59:27;101645.54;;;4.10;48.80
73518;BME280;61766;60.318;25.044;2024-02-28T10:01:53;101647.73;;;4.02;49.03
73518;BME280;61766;60.318;25.044;2024-02-28T10:04:15;101641.74;;;3.30;50.34
73518;BME280;61766;60.318;25.044;2024-02-28T10:06:40;101638.84;;;4.10;48.52
73518;BME280;61766;60.318;25.044;2024-02-28T10:09:06;101635.86;;;4.30;48.74
73518;BME280;61766;60.318;25.044;2024-02-28T10:11:32;101643.96;;;3.78;49.48
73518;BME280;61766;60.318;25.044;2024-02-28T10:13:57;101641.49;;;3.71;49.80
73518;BME280;61766;60.318;25.044;2024-02-28T10:16:22;101646.67;;;3.29;50.36
73518;BME280;61766;60.318;25.044;2024-02-28T10:18:48;101645.26;;;3.37;50.80
73518;BME280;61766;60.318;25.044;2024-02-28T10:21:13;101637.15;;;3.59;50.33
73518;BME280;61766;60.318;25.044;2024-02-28T10:23:39;101636.58;;;3.44;51.29
73518;BME280;61766;60.318;25.044;2024-02-28T10:26:04;101638.56;;;2.55;52.96
73518;BME280;61766;60.318;25.044;2024-02-28T10:28:30;101646.59;;;2.60;52.60
73518;BME280;61766;60.318;25.044;2024-02-28T10:30:55;101635.20;;;3.57;51.87
73518;BME280;61766;60.318;25.044;2024-02-28T10:33:20;101644.08;;;2.43;53.89
73518;BME280;61766;60.318;25.044;2024-02-28T10:35:46;101638.91;;;2.46;54.51
73518;BME280;61766;60.318;25.044;2024-02-28T10:38:12;101636.92;;;3.24;52.67
73518;BME280;61766;60.318;25.044;2024-02-28T10:40:36;101634.49;;;3.41;51.74
73518;BME280;61766;60.318;25.044;2024-02-28T10:43:03;101626.57;;;2.98;52.87
73518;BME280;61766;60.318;25.044;2024-02-28T10:45:27;101622.07;;;3.39;51.37
73518;BME280;61766;60.318;25.044;2024-02-28T10:47:53;101623.53;;;3.62;51.24
73518;BME280;61766;60.318;25.044;2024-02-28T10:50:17;101626.37;;;3.26;52.08
73518;BME280;61766;60.318;25.044;2024-02-28T10:52:45;101626.67;;;3.33;52.47
73518;BME280;61766;60.318;25.044;2024-02-28T10:55:11;101622.62;;;3.24;52.31
73518;BME280;61766;60.318;25.044;2024-02-28T10:57:34;101616.91;;;3.32;51.97
73518;BME280;61766;60.318;25.044;2024-02-28T10:59:58;101616.71;;;2.80;53.60
73518;BME280;61766;60.318;25.044;2024-02-28T11:02:23;101612.17;;;3.16;52.35
73518;BME280;61766;60.318;25.044;2024-02-28T11:04:50;101601.63;;;4.40;50.87
73518;BME280;61766;60.318;25.044;2024-02-28T11:09:40;101599.14;;;3.67;52.09
73518;BME280;61766;60.318;25.044;2024-02-28T11:12:07;101596.89;;;4.28;50.41
73518;BME280;61766;60.318;25.044;2024-02-28T11:14:29;101590.08;;;4.45;50.02
73518;BME280;61766;60.318;25.044;2024-02-28T11:16:59;101589.02;;;4.15;50.07
73518;BME280;61766;60.318;25.044;2024-02-28T11:19:23;101592.69;;;3.72;50.39
73518;BME280;61766;60.318;25.044;2024-02-28T11:21:45;101588.55;;;3.75;51.46
73518;BME280;61766;60.318;25.044;2024-02-28T11:24:12;101586.65;;;2.94;50.35
73518;BME280;61766;60.318;25.044;2024-02-28T11:26:37;101590.94;;;3.78;50.65
73518;BME280;61766;60.318;25.044;2024-02-28T11:29:02;101584.29;;;4.22;50.16
73518;BME280;61766;60.318;25.044;2024-02-28T11:31:28;101584.35;;;3.56;50.22
73518;BME280;61766;60.318;25.044;2024-02-28T11:33:54;101586.61;;;4.00;49.67
73518;BME280;61766;60.318;25.044;2024-02-28T11:36:19;101587.03;;;3.82;50.25
73518;BME280;61766;60.318;25.044;2024-02-28T11:38:44;101594.90;;;3.13;52.16
73518;BME280;61766;60.318;25.044;2024-02-28T11:41:09;101603.42;;;3.36;51.95
73518;BME280;61766;60.318;25.044;2024-02-28T11:43:35;101608.93;;;2.68;53.30
73518;BME280;61766;60.318;25.044;2024-02-28T11:46:00;101610.49;;;3.15;52.78
73518;BME280;61766;60.318;25.044;2024-02-28T11:48:26;101608.43;;;3.39;52.14
73518;BME280;61766;60.318;25.044;2024-02-28T11:50:51;101612.06;;;3.22;53.01
73518;BME280;61766;60.318;25.044;2024-02-28T11:53:16;101604.98;;;3.52;52.09
73518;BME280;61766;60.318;25.044;2024-02-28T11:55:42;101605.75;;;3.33;52.36
73518;BME280;61766;60.318;25.044;2024-02-28T11:58:11;101600.47;;;3.58;52.18
73518;BME280;61766;60.318;25.044;2024-02-28T12:00:32;101596.34;;;3.34;52.59
73518;BME280;61766;60.318;25.044;2024-02-28T12:03:04;101597.93;;;2.82;53.49
73518;BME280;61766;60.318;25.044;2024-02-28T12:05:24;101599.56;;;3.03;53.66
73518;BME280;61766;60.318;25.044;2024-02-28T12:07:50;101598.76;;;3.21;52.91
73518;BME280;61766;60.318;25.044;2024-02-28T12:10:15;101596.62;;;3.42;53.10
73518;BME280;61766;60.318;25.044;2024-02-28T12:12:42;101593.41;;;3.29;52.71
73518;BME280;61766;60.318;25.044;2024-02-28T12:15:05;101593.41;;;3.59;52.00
73518;BME280;61766;60.318;25.044;2024-02-28T12:17:32;101595.18;;;3.44;51.70
73518;BME280;61766;60.318;25.044;2024-02-28T12:19:55;101592.53;;;3.71;51.98
73518;BME280;61766;60.318;25.044;2024-02-28T12:22:21;101593.41;;;3.47;52.30
73518;BME280;61766;60.318;25.044;2024-02-28T12:24:46;101582.84;;;4.10;50.89
73518;BME280;61766;60.318;25.044;2024-02-28T12:27:12;101583.56;;;3.57;51.73
73518;BME280;61766;60.318;25.044;2024-02-28T12:29:37;101575.46;;;3.55;51.95
73518;BME280;61766;60.318;25.044;2024-02-28T12:32:02;101570.10;;;4.00;51.04
73518;BME280;61766;60.318;25.044;2024-02-28T12:34:28;101571.67;;;4.28;50.18
73518;BME280;61766;60.318;25.044;2024-02-28T12:36:53;101564.34;;;4.51;49.99
73518;BME280;61766;60.318;25.044;2024-02-28T12:39:19;101562.34;;;4.79;48.98
73518;BME280;61766;60.318;25.044;2024-02-28T12:41:44;101556.36;;;4.96;48.20